Time;durP1;ratioP1;P1;durP2;ratioP2;P2;SDS_P1;SDS_P2;PMS_P1;PMS_P2;Temp;Humidity;BMP_temperature;BMP_pressure;BME280_temperature;BME280_humidity;BME280_pressure;Samples;Min_cycle;Max_cycle;Signal;HPM_P1;HPM_P2
2023/04/17 00:00:07;;;;;;;3.63;2.70;;;6.10;99.90;5.30;101106;;;;583539;241;24078;-79
2023/04/17 00:02:38;;;;;;;3.77;2.17;;;6.10;99.90;5.30;101102;;;;583825;242;24061;-79
2023/04/17 00:05:02;;;;;;;2.53;2.40;;;6.10;99.90;5.30;101101;;;;583727;242;24105;-76
2023/04/17 00:07:33;;;;;;;2.80;2.60;;;6.10;99.90;5.30;101095;;;;583215;242;24171;-78
2023/04/17 00:09:59;;;;;;;3.37;3.07;;;6.10;99.90;5.30;101100;;;;582891;242;24114;-79
2023/04/17 00:12:27;;;;;;;3.27;2.83;;;6.10;99.90;5.30;101100;;;;583123;242;24062;-78
2023/04/17 00:14:55;;;;;;;3.03;2.60;;;6.10;99.90;5.20;101102;;;;583588;242;24100;-78
2023/04/17 00:17:25;;;;;;;3.87;3.57;;;6.00;99.90;5.20;101099;;;;582807;242;24106;-78
2023/04/17 00:19:51;;;;;;;5.27;3.60;;;6.00;99.90;5.20;101093;;;;582217;242;24065;-77
2023/04/17 00:22:19;;;;;;;3.90;3.33;;;6.00;99.90;5.20;101092;;;;583008;242;25135;-79
2023/04/17 00:24:50;;;;;;;3.60;3.30;;;6.00;99.90;5.20;101105;;;;583041;242;24138;-79
2023/04/17 00:27:15;;;;;;;3.73;3.13;;;5.90;99.90;5.20;101099;;;;582446;242;24078;-77
2023/04/17 00:29:43;;;;;;;2.93;2.73;;;5.90;99.90;5.20;101090;;;;583133;242;24127;-75
2023/04/17 00:32:15;;;;;;;3.10;2.80;;;6.00;99.90;5.10;101101;;;;583326;242;24113;-80
2023/04/17 00:34:40;;;;;;;6.47;5.27;;;5.90;99.90;5.10;101111;;;;577495;242;35192;-78
2023/04/17 00:37:07;;;;;;;4.80;3.93;;;5.90;99.90;5.10;101103;;;;582817;242;25390;-75
2023/04/17 00:39:35;;;;;;;4.57;3.10;;;5.90;99.90;5.10;101104;;;;583092;242;24048;-75
2023/04/17 00:42:03;;;;;;;3.03;2.67;;;5.90;99.90;5.10;101106;;;;582825;242;24090;-76
2023/04/17 00:44:31;;;;;;;4.13;3.73;;;5.90;99.90;5.00;101105;;;;582700;242;24049;-75
2023/04/17 00:47:03;;;;;;;5.77;3.87;;;5.80;99.90;5.00;101110;;;;582804;242;24053;-75
2023/04/17 00:49:31;;;;;;;5.37;4.23;;;5.80;99.90;5.00;101104;;;;582523;242;24085;-75
2023/04/17 00:51:55;;;;;;;6.67;3.93;;;5.80;99.90;5.00;101117;;;;579647;242;24062;-74
2023/04/17 00:54:23;;;;;;;4.33;3.93;;;5.70;99.90;4.90;101113;;;;582790;242;24092;-81
2023/04/17 00:56:51;;;;;;;3.80;3.47;;;5.70;99.90;4.90;101115;;;;582725;242;24090;-79
2023/04/17 00:59:19;;;;;;;4.73;4.23;;;5.70;99.90;4.90;101122;;;;582535;242;24101;-79
2023/04/17 01:01:46;;;;;;;6.10;4.43;;;5.70;99.90;4.90;101121;;;;582506;242;24080;-80
2023/04/17 01:04:14;;;;;;;5.63;4.27;;;5.70;99.90;4.90;101119;;;;582346;242;24085;-81
2023/04/17 01:06:43;;;;;;;5.67;4.50;;;5.60;99.90;4.90;101119;;;;582559;242;24107;-79
2023/04/17 01:09:11;;;;;;;8.20;4.40;;;5.60;99.90;4.90;101114;;;;582768;242;24045;-78
2023/04/17 01:11:39;;;;;;;5.47;4.83;;;5.60;99.90;4.80;101125;;;;581240;241;24119;-80
2023/04/17 01:14:10;;;;;;;4.90;4.37;;;5.70;99.90;4.90;101122;;;;583995;242;24052;-76
2023/04/17 01:16:39;;;;;;;4.70;4.10;;;5.60;99.90;4.80;101116;;;;583259;242;24064;-80
2023/04/17 01:19:05;;;;;;;6.67;4.53;;;5.60;99.90;4.80;101126;;;;583336;242;24089;-78
2023/04/17 01:21:31;;;;;;;4.83;4.37;;;5.60;99.90;4.80;101115;;;;588018;242;24060;-76
2023/04/17 01:24:04;;;;;;;5.53;4.80;;;5.60;99.90;4.80;101116;;;;584127;242;24119;-77
2023/04/17 01:26:32;;;;;;;4.70;4.10;;;5.60;99.90;4.80;101121;;;;584100;242;24058;-76
2023/04/17 01:29:00;;;;;;;5.50;4.70;;;5.60;99.90;4.70;101117;;;;583380;242;24065;-79
2023/04/17 01:31:28;;;;;;;4.87;4.33;;;5.60;99.90;4.80;101125;;;;583089;242;24117;-80
2023/04/17 01:33:59;;;;;;;6.80;4.87;;;5.50;99.90;4.70;101126;;;;583558;242;24108;-79
2023/04/17 01:36:24;;;;;;;5.57;5.00;;;5.60;99.90;4.80;101130;;;;582122;242;24103;-78
2023/04/17 01:38:52;;;;;;;5.50;4.93;;;5.60;99.90;4.80;101128;;;;582798;242;24104;-76
2023/04/17 01:41:19;;;;;;;6.33;5.50;;;5.60;99.90;4.80;101119;;;;583007;242;24050;-76
2023/04/17 01:43:49;;;;;;;5.37;4.83;;;5.60;99.90;4.80;101124;;;;582849;242;24085;-77
2023/04/17 01:46:19;;;;;;;6.07;5.47;;;5.60;99.90;4.70;101126;;;;582865;242;24180;-77
2023/04/17 01:48:43;;;;;;;6.13;4.80;;;5.60;99.90;4.70;101124;;;;582610;242;24092;-76
2023/04/17 01:51:11;;;;;;;8.43;5.23;;;5.50;99.90;4.80;101126;;;;582524;242;24084;-76
2023/04/17 01:53:43;;;;;;;5.83;5.30;;;5.60;99.90;4.80;101120;;;;582830;242;24048;-80
2023/04/17 01:56:10;;;;;;;6.53;5.27;;;5.60;99.90;4.80;101124;;;;590112;242;24071;-75
2023/04/17 01:58:35;;;;;;;6.07;5.27;;;5.60;99.90;4.80;101130;;;;582716;242;24065;-81
2023/04/17 02:01:06;;;;;;;7.67;5.40;;;5.60;99.90;4.80;101132;;;;582598;242;24111;-80
2023/04/17 02:03:31;;;;;;;8.03;5.73;;;5.60;99.90;4.80;101130;;;;582419;242;24104;-80
2023/04/17 02:06:02;;;;;;;8.83;5.77;;;5.60;99.90;4.80;101127;;;;582624;242;24087;-79
2023/04/17 02:08:28;;;;;;;9.13;6.53;;;5.60;99.90;4.80;101140;;;;581991;242;24106;-81
2023/04/17 02:10:56;;;;;;;6.67;4.97;;;5.60;99.90;4.80;101134;;;;583174;242;24049;-80
2023/04/17 02:13:24;;;;;;;8.20;5.10;;;5.60;99.90;4.80;101131;;;;583324;242;24116;-80
2023/04/17 02:15:52;;;;;;;8.60;6.07;;;5.60;99.90;4.80;101126;;;;583189;242;24113;-76
2023/04/17 02:18:20;;;;;;;12.15;9.07;;;5.60;99.90;4.80;101129;;;;586710;242;35180;-78
2023/04/17 02:20:48;;;;;;;5.97;5.37;;;5.60;99.90;4.80;101124;;;;582668;242;24063;-79
2023/04/17 02:23:16;;;;;;;8.20;5.40;;;5.60;99.90;4.80;101128;;;;583530;241;24044;-80
2023/04/17 02:25:44;;;;;;;7.37;5.17;;;5.60;99.90;4.80;101135;;;;583476;242;24108;-80
2023/04/17 02:28:12;;;;;;;7.47;6.43;;;5.60;99.90;4.80;101127;;;;583407;242;24059;-78
2023/04/17 02:30:40;;;;;;;10.23;6.27;;;5.60;99.90;4.80;101146;;;;583162;242;24094;-78
2023/04/17 02:33:08;;;;;;;12.07;6.33;;;5.60;99.90;4.80;101134;;;;582937;242;24104;-78
2023/04/17 02:35:36;;;;;;;10.17;5.80;;;5.60;99.90;4.80;101139;;;;583047;242;24049;-80
2023/04/17 02:38:04;;;;;;;7.27;6.33;;;5.60;99.90;4.80;101141;;;;582964;242;24067;-76
2023/04/17 02:40:32;;;;;;;8.97;6.43;;;5.50;99.90;4.80;101150;;;;582993;242;24066;-78
2023/04/17 02:43:00;;;;;;;8.63;6.60;;;5.60;99.90;4.80;101150;;;;582655;242;24067;-79
2023/04/17 02:45:28;;;;;;;10.47;6.90;;;5.50;99.90;4.80;101152;;;;582777;242;24052;-78
2023/04/17 02:47:56;;;;;;;7.30;5.97;;;5.60;99.90;4.80;101151;;;;582665;242;24136;-79
2023/04/17 02:50:24;;;;;;;6.83;5.90;;;5.60;99.90;4.70;101148;;;;582489;242;24099;-79
2023/04/17 02:52:53;;;;;;;11.80;9.15;;;5.50;99.90;4.70;101152;;;;577695;242;35188;-80
2023/04/17 02:55:21;;;;;;;5.73;5.20;;;5.50;99.90;4.70;101164;;;;582702;242;24061;-76
2023/04/17 02:57:48;;;;;;;7.03;5.23;;;5.60;99.90;4.70;101169;;;;583245;242;24076;-77
2023/04/17 03:00:16;;;;;;;9.57;6.03;;;5.50;99.90;4.70;101156;;;;582925;242;24123;-76
2023/04/17 03:02:45;;;;;;;7.73;6.43;;;6.50;99.90;4.70;101161;;;;582630;242;24075;-79
2023/04/17 03:05:13;;;;;;;9.00;6.27;;;5.50;99.90;4.70;101170;;;;582488;242;24113;-79
2023/04/17 03:07:41;;;;;;;8.90;6.73;;;5.50;99.90;4.70;101164;;;;582651;242;24071;-78
2023/04/17 03:10:09;;;;;;;6.73;5.13;;;5.50;99.90;4.70;101165;;;;582553;242;24114;-80
2023/04/17 03:12:37;;;;;;;9.70;6.80;;;5.50;99.90;4.70;101170;;;;582709;242;24073;-80
2023/04/17 03:15:07;;;;;;;9.97;6.83;;;5.50;99.90;4.70;101170;;;;582894;242;24061;-80
2023/04/17 03:17:32;;;;;;;8.57;6.23;;;5.60;99.90;4.80;101164;;;;582580;242;24095;-80
2023/04/17 03:20:01;;;;;;;7.47;5.97;;;5.60;99.90;4.70;101164;;;;582820;242;24045;-80
2023/04/17 03:22:28;;;;;;;10.77;9.30;;;5.60;99.90;4.80;101169;;;;582941;242;24083;-81
2023/04/17 03:24:56;;;;;;;11.47;9.57;;;5.60;99.90;4.80;101178;;;;583116;242;24100;-79
2023/04/17 03:27:25;;;;;;;12.70;10.93;;;5.60;99.90;4.70;101172;;;;582688;242;24072;-79
2023/04/17 03:29:52;;;;;;;15.13;12.33;;;5.60;99.90;4.70;101168;;;;582631;242;24068;-78
2023/04/17 03:32:20;;;;;;;14.17;12.13;;;5.50;99.90;4.70;101168;;;;582805;242;24130;-78
2023/04/17 03:34:48;;;;;;;16.83;14.43;;;5.50;99.90;4.70;101168;;;;583585;241;24070;-80
2023/04/17 03:37:16;;;;;;;17.07;13.37;;;5.50;99.90;4.70;101178;;;;583855;242;24188;-78
2023/04/17 03:39:44;;;;;;;22.57;16.40;;;5.40;99.90;4.70;101170;;;;583568;242;24101;-78
2023/04/17 03:42:13;;;;;;;16.73;14.60;;;5.50;99.90;4.70;101178;;;;583217;242;24087;-79
2023/04/17 03:44:41;;;;;;;19.70;16.20;;;5.50;99.90;4.70;101174;;;;587660;242;24084;-78
2023/04/17 03:47:09;;;;;;;14.77;13.13;;;5.50;99.90;4.70;101186;;;;583108;242;24107;-75
2023/04/17 03:49:37;;;;;;;19.33;13.57;;;5.50;99.90;4.70;101176;;;;580052;242;24069;-76
2023/04/17 03:52:05;;;;;;;15.37;12.10;;;5.60;99.90;4.70;101190;;;;582978;242;24095;-78
2023/04/17 03:54:34;;;;;;;14.43;12.07;;;5.50;99.90;4.80;101188;;;;582717;242;24070;-77
2023/04/17 03:57:04;;;;;;;15.20;12.33;;;5.60;99.90;4.80;101188;;;;582799;238;24060;-80
2023/04/17 03:59:36;;;;;;;16.80;12.60;;;5.60;99.90;4.80;101184;;;;582166;242;24059;-76
2023/04/17 04:02:00;;;;;;;16.90;12.73;;;5.50;99.90;4.80;101184;;;;582914;242;24159;-76
2023/04/17 04:04:28;;;;;;;15.03;12.93;;;5.60;99.90;4.80;101191;;;;582830;242;24095;-76
2023/04/17 04:07:00;;;;;;;15.50;12.00;;;5.60;99.90;4.90;101196;;;;586942;242;24106;-78
2023/04/17 04:09:27;;;;;;;18.02;12.75;;;5.60;99.90;4.90;101195;;;;577017;242;35142;-78
2023/04/17 04:11:58;;;;;;;11.43;8.10;;;5.70;99.90;4.90;101187;;;;582266;242;24107;-79
2023/04/17 04:14:22;;;;;;;16.20;9.00;;;5.80;99.90;4.90;101191;;;;582070;242;24114;-76
2023/04/17 04:16:51;;;;;;;13.33;8.43;;;5.70;99.90;5.00;101189;;;;582932;242;24058;-77
2023/04/17 04:19:24;;;;;;;12.17;8.77;;;5.80;99.90;5.00;101196;;;;587403;242;24093;-79
2023/04/17 04:21:49;;;;;;;15.13;9.17;;;5.80;99.90;5.00;101196;;;;582767;242;24053;-78
2023/04/17 04:24:19;;;;;;;15.57;10.20;;;5.80;99.90;5.00;101196;;;;582734;242;24055;-77
2023/04/17 04:26:49;;;;;;;14.63;9.67;;;5.90;99.90;5.00;101192;;;;582655;242;24092;-77
2023/04/17 04:29:18;;;;;;;16.83;10.13;;;5.90;99.90;5.10;101197;;;;582356;242;24105;-78
2023/04/17 04:31:49;;;;;;;18.37;9.13;;;5.90;99.90;5.10;101204;;;;582443;242;24075;-75
2023/04/17 04:34:15;;;;;;;15.67;9.20;;;5.90;99.90;5.10;101206;;;;582422;242;24068;-76
2023/04/17 04:36:48;;;;;;;17.13;9.87;;;5.80;99.90;5.10;101197;;;;582486;242;24065;-77
2023/04/17 04:39:10;;;;;;;11.13;8.43;;;5.90;99.90;5.10;101206;;;;582374;242;24107;-76
2023/04/17 04:41:38;;;;;;;13.50;8.03;;;5.90;99.90;5.10;101200;;;;582220;242;24076;-78
2023/04/17 04:44:06;;;;;;;10.60;8.20;;;5.90;99.90;5.10;101204;;;;582450;242;24096;-80
2023/04/17 04:46:34;;;;;;;13.20;8.00;;;5.90;99.90;5.10;101201;;;;583136;241;24081;-79
2023/04/17 04:49:01;;;;;;;14.70;9.43;;;5.90;99.90;5.10;101210;;;;583720;242;24064;-81
2023/04/17 04:51:32;;;;;;;12.57;9.10;;;5.90;99.90;5.20;101212;;;;583295;242;24102;-78
2023/04/17 04:53:57;;;;;;;14.50;9.17;;;6.00;99.90;5.20;101213;;;;580820;242;24089;-78
2023/04/17 04:56:29;;;;;;;12.57;7.90;;;6.00;99.90;5.20;101219;;;;583028;242;24104;-80
2023/04/17 04:58:56;;;;;;;15.43;8.70;;;6.00;99.90;5.30;101216;;;;582575;242;24144;-79
2023/04/17 05:01:21;;;;;;;10.03;7.87;;;6.10;99.90;5.30;101218;;;;580958;242;24107;-78
2023/04/17 05:03:49;;;;;;;11.13;8.47;;;6.10;99.90;5.30;101216;;;;583309;242;24059;-79
2023/04/17 05:06:18;;;;;;;13.53;8.77;;;6.10;99.90;5.40;101207;;;;583018;242;24150;-76
2023/04/17 05:08:45;;;;;;;11.07;7.57;;;6.10;99.90;5.40;101223;;;;582982;242;24280;-78
2023/04/17 05:11:13;;;;;;;13.27;8.73;;;6.20;99.90;5.50;101217;;;;583140;242;24115;-79
2023/04/17 05:13:41;;;;;;;15.90;11.07;;;6.20;99.90;5.50;101217;;;;583037;242;24116;-77
2023/04/17 05:16:09;;;;;;;13.63;9.03;;;6.30;99.90;5.50;101229;;;;582807;242;24057;-76
2023/04/17 05:18:37;;;;;;;13.63;7.37;;;6.30;99.90;5.60;101226;;;;582784;242;24097;-76
2023/04/17 05:21:05;;;;;;;12.03;8.13;;;6.40;99.90;5.60;101222;;;;586939;242;24076;-75
2023/04/17 05:23:33;;;;;;;14.27;7.93;;;6.40;99.90;5.70;101234;;;;582318;242;24053;-78
2023/04/17 05:26:04;;;;;;;14.43;8.43;;;6.50;99.90;5.60;101227;;;;582372;242;24044;-79
2023/04/17 05:28:32;;;;;;;16.17;9.53;;;6.40;99.90;5.70;101240;;;;578776;242;24118;-76
2023/04/17 05:30:59;;;;;;;9.33;7.80;;;6.50;99.90;5.70;101230;;;;582719;242;24088;-76
2023/04/17 05:33:25;;;;;;;8.33;6.60;;;6.50;99.90;5.70;101237;;;;582595;242;25134;-79
2023/04/17 05:35:52;;;;;;;11.00;7.23;;;6.50;99.90;5.70;101237;;;;582722;242;24046;-78
2023/04/17 05:38:20;;;;;;;11.47;8.10;;;6.50;99.90;5.80;101243;;;;582738;242;24075;-78
2023/04/17 05:40:49;;;;;;;13.03;8.30;;;6.60;99.90;5.80;101242;;;;582679;242;24101;-79
2023/04/17 05:43:17;;;;;;;11.73;6.77;;;6.60;99.90;5.80;101239;;;;582699;242;25145;-76
2023/04/17 05:45:46;;;;;;;10.70;7.73;;;6.60;99.90;5.90;101251;;;;582737;242;24077;-76
2023/04/17 05:48:13;;;;;;;10.60;7.60;;;6.80;99.90;6.00;101256;;;;582451;242;24099;-79
2023/04/17 05:50:41;;;;;;;15.80;8.37;;;6.90;99.90;6.10;101260;;;;582403;242;24113;-76
2023/04/17 05:53:09;;;;;;;11.77;7.63;;;6.90;99.90;6.20;101258;;;;582210;242;24103;-76
2023/04/17 05:55:37;;;;;;;10.80;8.27;;;7.00;99.90;6.20;101266;;;;582456;242;24103;-76
2023/04/17 05:58:06;;;;;;;13.63;8.20;;;7.10;99.90;6.30;101263;;;;583162;241;24086;-76
2023/04/17 06:00:35;;;;;;;12.43;7.30;;;7.20;99.90;6.40;101267;;;;583964;242;24065;-75
2023/04/17 06:03:05;;;;;;;12.70;7.43;;;7.20;99.90;6.40;101267;;;;583601;242;24109;-78
2023/04/17 06:05:31;;;;;;;11.47;7.87;;;7.30;99.90;6.50;101266;;;;583536;242;24111;-80
2023/04/17 06:08:02;;;;;;;10.37;7.73;;;7.40;99.90;6.50;101265;;;;583318;242;24100;-78
2023/04/17 06:10:27;;;;;;;9.57;5.60;;;7.50;99.90;6.60;101281;;;;582787;242;24134;-79
2023/04/17 06:12:55;;;;;;;9.13;7.37;;;7.50;99.90;6.60;101279;;;;583279;242;24066;-79
2023/04/17 06:15:23;;;;;;;12.30;8.37;;;7.50;99.90;6.70;101280;;;;583222;242;24076;-80
2023/04/17 06:17:54;;;;;;;9.77;7.40;;;7.60;99.90;6.70;101281;;;;582766;242;24060;-78
2023/04/17 06:20:19;;;;;;;11.97;8.17;;;7.60;99.90;6.80;101285;;;;582424;242;24287;-80
2023/04/17 06:22:47;;;;;;;10.43;8.13;;;7.70;99.90;6.80;101279;;;;582575;242;24105;-77
2023/04/17 06:25:15;;;;;;;9.37;7.27;;;7.70;99.90;6.90;101289;;;;582732;242;24053;-78
2023/04/17 06:27:43;;;;;;;9.60;6.83;;;7.80;99.90;6.90;101278;;;;582687;242;24054;-76
2023/04/17 06:30:11;;;;;;;13.43;7.73;;;7.80;99.90;6.90;101275;;;;582934;242;24096;-75
2023/04/17 06:32:42;;;;;;;10.87;6.83;;;7.90;99.90;7.00;101273;;;;592239;242;24119;-77
2023/04/17 06:35:11;;;;;;;10.97;7.37;;;7.90;99.90;7.10;101285;;;;583029;242;24107;-79
2023/04/17 06:37:39;;;;;;;12.47;7.43;;;8.00;99.90;7.20;101278;;;;583049;242;24060;-78
2023/04/17 06:40:11;;;;;;;11.27;7.33;;;8.10;99.90;7.30;101272;;;;582745;242;24095;-80
2023/04/17 06:42:36;;;;;;;14.67;7.40;;;8.20;99.90;7.40;101278;;;;582444;242;24104;-78
2023/04/17 06:45:04;;;;;;;10.57;7.20;;;8.40;99.90;7.50;101287;;;;582647;242;24081;-79
2023/04/17 06:47:32;;;;;;;8.27;6.80;;;8.40;99.90;7.60;101285;;;;582672;242;24077;-79
2023/04/17 06:50:00;;;;;;;10.37;6.90;;;8.50;99.90;7.80;101282;;;;582735;242;24097;-78
2023/04/17 06:52:28;;;;;;;10.77;8.07;;;8.60;99.90;7.90;101289;;;;582828;242;24100;-80
2023/04/17 06:54:57;;;;;;;9.97;7.87;;;9.00;99.90;8.10;101287;;;;582693;242;24123;-78
2023/04/17 06:57:25;;;;;;;8.33;6.57;;;8.90;99.90;8.10;101285;;;;582596;242;24068;-78
2023/04/17 06:59:53;;;;;;;11.23;7.90;;;9.10;99.90;8.20;101289;;;;582831;242;24087;-81
2023/04/17 07:02:21;;;;;;;10.33;7.77;;;9.10;99.90;8.20;101306;;;;582759;242;24095;-76
2023/04/17 07:04:49;;;;;;;9.60;6.87;;;9.10;99.90;8.30;101306;;;;582635;242;24089;-77
2023/04/17 07:07:17;;;;;;;11.63;7.93;;;9.20;99.90;8.40;101297;;;;582629;242;24064;-76
2023/04/17 07:09:47;;;;;;;10.20;7.10;;;9.30;99.90;8.50;101297;;;;583668;241;24051;-77
2023/04/17 07:12:13;;;;;;;10.33;7.13;;;9.30;99.90;8.50;101313;;;;583859;242;24144;-79
2023/04/17 07:14:41;;;;;;;14.83;7.27;;;9.40;99.90;8.50;101314;;;;583631;242;24055;-80
2023/04/17 07:17:09;;;;;;;8.03;5.77;;;9.40;99.90;8.50;101307;;;;583691;242;24071;-79
2023/04/17 07:19:37;;;;;;;9.93;5.60;;;9.40;99.90;8.50;101307;;;;583030;242;24121;-79
2023/04/17 07:22:05;;;;;;;9.07;6.23;;;9.40;99.90;8.60;101320;;;;580421;242;24072;-78
2023/04/17 07:24:35;;;;;;;11.73;8.30;;;9.40;99.90;8.70;101322;;;;577931;242;35091;-79
2023/04/17 07:27:07;;;;;;;8.97;6.97;;;9.50;99.90;8.90;101323;;;;582839;242;24099;-78
2023/04/17 07:29:31;;;;;;;8.83;6.87;;;9.70;99.90;9.00;101329;;;;582542;242;24061;-77
2023/04/17 07:31:59;;;;;;;8.17;6.00;;;9.90;99.90;9.30;101328;;;;582637;242;24121;-79
2023/04/17 07:34:29;;;;;;;9.33;6.47;;;10.10;99.90;9.40;101330;;;;583039;242;24076;-79
2023/04/17 07:36:56;;;;;;;8.00;6.03;;;10.40;99.90;9.60;101334;;;;582997;242;24221;-79
2023/04/17 07:39:27;;;;;;;9.60;6.80;;;10.50;99.90;9.60;101336;;;;582988;242;24125;-81
2023/04/17 07:41:52;;;;;;;9.90;7.07;;;10.50;99.90;9.70;101338;;;;588234;242;24053;-80
2023/04/17 07:44:20;;;;;;;9.27;6.87;;;10.60;99.90;9.70;101342;;;;582992;242;24099;-80
2023/04/17 07:46:48;;;;;;;10.73;6.90;;;10.60;99.90;9.60;101351;;;;582675;242;24106;-79
2023/04/17 07:49:17;;;;;;;8.07;6.33;;;10.40;99.90;9.50;101362;;;;579746;242;24088;-79
2023/04/17 07:51:45;;;;;;;5.87;5.13;;;10.40;99.90;9.50;101351;;;;582645;242;24091;-79
2023/04/17 07:54:12;;;;;;;9.50;5.63;;;10.30;99.90;9.40;101361;;;;582691;242;24050;-74
2023/04/17 07:56:40;;;;;;;6.57;5.70;;;10.20;99.90;9.40;101364;;;;582727;242;24100;-75
2023/04/17 07:59:09;;;;;;;7.57;5.67;;;10.20;99.90;9.40;101362;;;;585779;241;24059;-78
2023/04/17 08:01:37;;;;;;;10.70;5.43;;;10.20;99.90;9.40;101363;;;;582267;242;24068;-79
2023/04/17 08:04:05;;;;;;;11.50;6.40;;;10.30;99.90;9.50;101366;;;;579466;242;24078;-79
2023/04/17 08:06:33;;;;;;;10.00;6.40;;;10.30;99.90;9.50;101359;;;;579352;242;24072;-79
2023/04/17 08:09:04;;;;;;;6.70;5.93;;;10.40;99.90;9.60;101374;;;;579592;242;24110;-79
2023/04/17 08:11:29;;;;;;;8.10;5.60;;;10.40;99.90;9.70;101383;;;;582328;242;24060;-79
2023/04/17 08:13:57;;;;;;;6.60;4.97;;;10.50;99.90;9.80;101377;;;;581855;242;24112;-80
2023/04/17 08:16:24;;;;;;;6.53;5.67;;;10.60;99.90;9.80;101372;;;;582381;242;24048;-80
2023/04/17 08:18:52;;;;;;;9.50;6.50;;;10.60;99.90;9.80;101384;;;;582375;242;24037;-80
2023/04/17 08:21:20;;;;;;;10.93;5.73;;;10.60;99.90;9.80;101380;;;;583666;241;24107;-80
2023/04/17 08:23:48;;;;;;;7.03;6.30;;;10.70;99.90;10.00;101385;;;;581024;242;24062;-79
2023/04/17 08:26:19;;;;;;;8.50;6.80;;;10.80;99.90;10.10;101397;;;;583813;242;24070;-79
2023/04/17 08:28:44;;;;;;;10.50;6.87;;;10.90;99.90;10.30;101405;;;;583503;242;24079;-79
2023/04/17 08:31:12;;;;;;;9.57;6.03;;;11.10;99.90;10.50;101401;;;;583438;242;24109;-79
2023/04/17 08:33:40;;;;;;;7.40;6.27;;;11.20;99.90;10.60;101401;;;;583305;242;24108;-76
2023/04/17 08:36:09;;;;;;;10.93;6.60;;;11.40;99.90;10.80;101397;;;;568560;246;24071;-81
2023/04/17 08:38:36;;;;;;;8.87;6.83;;;11.50;99.90;10.80;101408;;;;583156;242;24098;-79
2023/04/17 08:41:07;;;;;;;10.50;7.03;;;11.60;99.90;10.90;101413;;;;582708;242;24080;-79
2023/04/17 08:43:34;;;;;;;10.17;7.27;;;11.70;99.90;11.00;101416;;;;582549;242;24084;-76
2023/04/17 08:46:05;;;;;;;8.57;6.17;;;11.80;99.90;11.20;101408;;;;586020;242;24082;-76
2023/04/17 08:48:30;;;;;;;11.70;7.77;;;12.00;99.90;11.20;101419;;;;582416;242;24065;-78
2023/04/17 08:50:58;;;;;;;9.80;6.00;;;12.10;99.90;11.30;101411;;;;582705;242;24034;-78
2023/04/17 08:53:26;;;;;;;7.67;5.20;;;12.20;99.90;11.40;101424;;;;582648;242;24061;-80
2023/04/17 08:55:55;;;;;;;5.83;5.33;;;12.20;99.90;11.30;101416;;;;582553;242;24196;-80
2023/04/17 08:58:25;;;;;;;8.07;6.60;;;12.20;99.90;11.40;101425;;;;579410;242;24088;-80
2023/04/17 09:00:52;;;;;;;7.63;5.90;;;12.20;99.90;11.30;101425;;;;582264;242;24099;-79
2023/04/17 09:03:20;;;;;;;6.93;5.67;;;12.20;99.90;11.40;101422;;;;582398;242;24053;-79
2023/04/17 09:05:48;;;;;;;9.77;6.50;;;12.20;99.90;11.40;101427;;;;582336;242;24103;-78
2023/04/17 09:08:22;;;;;;;7.87;7.13;;;12.30;99.90;11.50;101425;;;;577436;242;35138;-80
2023/04/17 09:10:50;;;;;;;8.10;5.87;;;12.30;99.90;11.50;101429;;;;582126;242;24096;-77
2023/04/17 09:13:18;;;;;;;8.83;6.80;;;12.40;99.90;11.60;101438;;;;582428;242;24070;-78
2023/04/17 09:15:46;;;;;;;7.67;6.30;;;12.50;99.90;11.60;101443;;;;582124;241;24079;-79
2023/04/17 09:18:30;;;;;;;7.93;6.57;;;12.60;99.90;11.80;101427;;;;582211;242;24071;-76
2023/04/17 09:20:57;;;;;;;12.80;6.50;;;12.70;99.90;11.90;101435;;;;591041;242;24156;-76
2023/04/17 09:23:24;;;;;;;7.53;5.80;;;12.80;99.90;12.00;101431;;;;582528;242;24050;-76
2023/04/17 09:26:11;;;;;;;7.37;6.57;;;12.70;99.90;12.10;101434;;;;582374;242;24114;-74
2023/04/17 09:28:39;;;;;;;7.40;6.30;;;12.90;99.90;12.20;101437;;;;582677;242;24068;-76
2023/04/17 09:31:19;;;;;;;8.50;7.60;;;13.00;99.90;12.30;101454;;;;577709;242;36833;-79
2023/04/17 09:34:03;;;;;;;8.18;7.37;;;13.10;99.90;12.20;101452;;;;579033;242;35152;-79
2023/04/17 09:36:34;;;;;;;9.43;5.53;;;13.10;99.90;12.20;101455;;;;583443;242;24056;-78
2023/04/17 09:39:05;;;;;;;6.17;5.57;;;13.00;99.90;12.10;101458;;;;583199;242;24120;-79
2023/04/17 09:41:30;;;;;;;7.77;6.27;;;13.00;99.90;12.00;101447;;;;583120;242;24094;-78
2023/04/17 09:44:04;;;;;;;9.27;6.73;;;12.90;99.90;11.90;101449;;;;583034;242;24050;-79
2023/04/17 09:46:38;;;;;;;12.40;7.33;;;12.80;99.90;12.00;101452;;;;582472;242;24076;-78
2023/04/17 09:49:14;;;;;;;6.63;5.90;;;12.90;99.90;12.00;101461;;;;583172;242;24085;-79
2023/04/17 09:51:36;;;;;;;9.20;5.93;;;12.90;99.90;12.10;101453;;;;582058;242;24063;-80
2023/04/17 09:54:05;;;;;;;9.03;7.87;;;12.90;99.90;12.00;101463;;;;582554;242;24042;-81
2023/04/17 09:56:36;;;;;;;8.03;6.50;;;12.90;99.90;11.90;101462;;;;591749;241;24080;-77
2023/04/17 09:59:03;;;;;;;8.30;6.70;;;12.80;99.90;11.80;101476;;;;582484;242;24077;-79
2023/04/17 10:01:31;;;;;;;7.13;5.97;;;12.70;99.90;11.70;101465;;;;570431;247;24085;-76
2023/04/17 10:03:58;;;;;;;9.87;6.60;;;12.60;99.90;11.60;101470;;;;582975;242;24156;-77
2023/04/17 10:06:30;;;;;;;9.77;7.43;;;12.50;99.90;11.60;101468;;;;582950;242;24054;-77
2023/04/17 10:08:55;;;;;;;8.30;6.97;;;12.50;99.90;11.70;101464;;;;578847;247;24110;-76
2023/04/17 10:11:27;;;;;;;8.27;7.00;;;12.50;99.90;11.80;101465;;;;582787;242;24155;-77
2023/04/17 10:14:22;;;;;;;8.90;6.93;;;12.60;99.90;11.90;101466;;;;581670;242;24100;-76
2023/04/17 10:16:53;;;;;;;9.40;7.27;;;12.60;99.90;11.80;101474;;;;582754;242;24048;-75
2023/04/17 10:19:35;;;;;;;10.43;7.70;;;12.50;99.90;11.70;101476;;;;582042;242;24048;-79
2023/04/17 10:22:18;;;;;;;9.50;7.23;;;12.50;99.90;11.70;101478;;;;582816;242;24043;-80
2023/04/17 10:24:46;;;;;;;7.03;6.33;;;12.50;99.90;11.60;101479;;;;582900;242;24025;-76
2023/04/17 10:27:29;;;;;;;7.53;6.27;;;12.40;99.90;11.40;101482;;;;582562;242;24112;-80
2023/04/17 10:30:03;;;;;;;8.23;7.33;;;12.30;99.90;11.20;101475;;;;582877;242;24047;-76
2023/04/17 10:32:33;;;;;;;9.20;6.07;;;12.10;99.90;11.20;101474;;;;582491;242;24060;-75
2023/04/17 10:35:02;;;;;;;6.40;5.80;;;12.10;99.90;11.20;101492;;;;586069;242;24062;-79
2023/04/17 10:37:51;;;;;;;8.57;5.70;;;12.00;99.90;11.00;101483;;;;582499;242;24060;-79
2023/04/17 10:40:25;;;;;;;11.67;6.97;;;11.90;99.90;10.80;101473;;;;567692;245;24083;-77
2023/04/17 10:43:18;;;;;;;8.47;5.53;;;11.70;99.90;10.60;101479;;;;582545;242;24045;-79
2023/04/17 10:46:16;;;;;;;7.63;5.57;;;11.50;99.90;10.50;101477;;;;584051;242;24109;-75
2023/04/17 10:48:52;;;;;;;9.83;6.47;;;11.30;99.90;10.20;101475;;;;587444;242;24087;-77
2023/04/17 10:51:23;;;;;;;7.07;5.80;;;11.10;99.90;10.10;101475;;;;582809;242;24098;-77
2023/04/17 10:53:51;;;;;;;11.73;7.03;;;10.90;99.90;10.00;101484;;;;583267;242;24064;-77
2023/04/17 10:56:19;;;;;;;16.00;6.90;;;10.80;99.90;10.10;101482;;;;582797;242;24057;-77
2023/04/17 10:58:59;;;;;;;8.37;6.87;;;10.80;99.90;10.10;101478;;;;582763;242;24068;-76
2023/04/17 11:01:39;;;;;;;9.40;6.07;;;10.80;99.90;10.10;101493;;;;583022;242;24093;-76
2023/04/17 11:04:10;;;;;;;12.67;7.47;;;10.90;99.90;10.00;101485;;;;582313;242;24054;-75
2023/04/17 11:06:41;;;;;;;10.03;6.20;;;10.80;99.90;10.00;101487;;;;582723;242;24123;-75
2023/04/17 11:09:12;;;;;;;9.43;7.10;;;10.80;99.90;10.00;101485;;;;582872;242;24079;-74
2023/04/17 11:11:40;;;;;;;18.83;10.57;;;10.80;99.90;10.10;101481;;;;582687;242;24069;-77
2023/04/17 11:14:14;;;;;;;11.73;7.73;;;10.80;99.90;10.20;101490;;;;582703;242;24059;-78
2023/04/17 11:16:42;;;;;;;9.63;7.37;;;10.90;99.90;10.30;101493;;;;582496;242;24079;-75
2023/04/17 11:19:08;;;;;;;10.17;7.03;;;11.10;99.90;10.20;101487;;;;579680;242;24102;-76
2023/04/17 11:21:34;;;;;;;10.93;7.37;;;11.00;99.90;10.10;101493;;;;591198;242;24040;-75
2023/04/17 11:24:02;;;;;;;11.00;7.83;;;10.90;99.90;10.00;101498;;;;582385;242;24056;-77